Time;durP1;ratioP1;P1;durP2;ratioP2;P2;SDS_P1;SDS_P2;PMS_P1;PMS_P2;Temp;Humidity;BMP_temperature;BMP_pressure;BME280_temperature;BME280_humidity;BME280_pressure;Samples;Min_cycle;Max_cycle;Signal;HPM_P1;HPM_P2
2022/03/04 00:00:50;;;;;;;17.00;9.97;;;-3276.20;55.10;;;;;;6232683;28;20198;-59
2022/03/04 00:03:51;;;;;;;14.00;9.30;;;-3276.20;53.90;;;;;;6233183;28;20206;-59
2022/03/04 00:06:54;;;;;;;16.13;10.17;;;-3276.30;53.60;;;;;;6250306;28;20196;-59
2022/03/04 00:09:55;;;;;;;13.43;9.23;;;-3276.40;53.60;;;;;;6233126;28;20211;-59
2022/03/04 00:12:56;;;;;;;13.67;9.40;;;-3276.30;53.90;;;;;;6233483;28;20194;-58
2022/03/04 00:15:57;;;;;;;14.87;9.10;;;-3276.30;53.80;;;;;;6233157;28;20244;-59
2022/03/04 00:19:09;;;;;;;16.40;8.90;;;-3276.30;54.00;;;;;;6232586;28;20194;-60
2022/03/04 00:22:10;;;;;;;16.30;9.87;;;-3276.30;54.20;;;;;;6231792;28;20199;-59
2022/03/04 00:25:11;;;;;;;14.13;9.43;;;-3276.20;55.00;;;;;;6225408;28;20277;-60
2022/03/04 00:28:12;;;;;;;13.83;8.60;;;-3276.10;55.40;;;;;;6225316;28;20197;-60
2022/03/04 00:31:13;;;;;;;15.07;8.73;;;-3276.10;55.50;;;;;;6224809;28;20210;-60
2022/03/04 00:34:14;;;;;;;13.13;8.67;;;-3276.00;56.00;;;;;;6208431;28;20254;-60
2022/03/04 00:37:15;;;;;;;15.63;9.67;;;-3276.00;56.10;;;;;;6208698;28;20233;-60
2022/03/04 00:40:16;;;;;;;15.17;9.07;;;-3275.90;56.10;;;;;;6224559;28;20244;-60
2022/03/04 00:43:17;;;;;;;16.13;9.93;;;-3275.90;56.30;;;;;;6243920;28;20641;-61
2022/03/04 00:46:18;;;;;;;13.93;8.77;;;-3275.90;56.30;;;;;;6229881;28;20262;-61
2022/03/04 00:49:19;;;;;;;15.50;10.23;;;-3275.90;56.20;;;;;;6207964;28;20194;-60
2022/03/04 00:52:20;;;;;;;14.60;8.87;;;-3275.90;56.50;;;;;;6212088;28;20198;-60
2022/03/04 00:55:21;;;;;;;12.17;8.00;;;-3275.80;56.40;;;;;;6222811;28;20275;-60
2022/03/04 00:58:22;;;;;;;15.87;9.17;;;-3275.70;57.40;;;;;;6232380;28;20219;-61
2022/03/04 01:01:23;;;;;;;14.93;9.73;;;-3275.60;57.50;;;;;;6231877;28;20217;-60
2022/03/04 01:04:24;;;;;;;17.43;9.93;;;-3275.70;57.10;;;;;;6232412;28;20206;-60
2022/03/04 01:07:25;;;;;;;19.77;10.60;;;-3275.60;57.10;;;;;;6227348;28;20203;-59
2022/03/04 01:10:26;;;;;;;14.43;8.87;;;-3275.70;57.10;;;;;;6223981;28;20199;-59
2022/03/04 01:13:27;;;;;;;16.60;10.13;;;-3275.70;57.10;;;;;;6227521;28;20198;-59
2022/03/04 01:16:27;;;;;;;16.73;9.13;;;-3275.60;57.40;;;;;;6250715;28;20194;-59
2022/03/04 01:19:28;;;;;;;14.60;9.27;;;-3275.60;57.40;;;;;;6203933;28;20234;-58
2022/03/04 01:22:29;;;;;;;12.03;8.47;;;-3275.50;57.50;;;;;;6208103;28;20183;-60
2022/03/04 01:25:30;;;;;;;15.73;10.20;;;-3275.50;57.90;;;;;;6208460;28;20269;-60
2022/03/04 01:28:32;;;;;;;16.50;9.27;;;-3275.40;58.30;;;;;;6225059;28;20197;-60
2022/03/04 01:31:33;;;;;;;16.47;9.00;;;-3275.40;58.40;;;;;;6247425;28;20193;-60
2022/03/04 01:34:33;;;;;;;16.43;8.93;;;-3275.30;58.60;;;;;;6222246;28;20238;-59
2022/03/04 01:37:35;;;;;;;18.07;9.80;;;-3275.10;59.50;;;;;;6207669;28;20213;-60
2022/03/04 01:40:37;;;;;;;15.07;9.53;;;-3275.10;59.80;;;;;;6240654;28;20281;-59
2022/03/04 01:43:38;;;;;;;15.70;9.10;;;-3275.00;60.30;;;;;;6248872;28;20184;-60
2022/03/04 01:46:39;;;;;;;14.13;8.33;;;-3275.00;60.40;;;;;;6209090;28;20266;-60
2022/03/04 01:49:41;;;;;;;14.60;9.03;;;-3275.00;60.20;;;;;;6215187;28;20550;-59
2022/03/04 01:52:42;;;;;;;15.60;8.77;;;-3274.90;60.30;;;;;;6199353;28;20191;-60
2022/03/04 01:55:43;;;;;;;17.93;9.03;;;-3274.90;60.50;;;;;;6248087;28;20220;-59
2022/03/04 01:58:43;;;;;;;17.80;9.57;;;-3274.90;60.60;;;;;;6230510;28;20207;-60
2022/03/04 02:01:45;;;;;;;14.93;9.10;;;-3274.80;60.80;;;;;;6246636;28;20271;-60
2022/03/04 02:04:48;;;;;;;14.80;9.40;;;-3274.80;61.10;;;;;;6246983;28;20200;-59
2022/03/04 02:07:49;;;;;;;20.43;13.07;;;-3274.80;61.60;;;;;;6264073;28;20192;-60
2022/03/04 02:10:50;;;;;;;30.90;17.17;;;-3274.80;61.60;;;;;;6248107;28;20193;-61
2022/03/04 02:13:51;;;;;;;30.00;15.43;;;-3274.80;61.70;;;;;;6264109;28;20211;-60
2022/03/04 02:16:53;;;;;;;27.67;14.17;;;-3274.70;61.30;;;;;;6250453;28;20269;-59
2022/03/04 02:19:55;;;;;;;29.10;14.47;;;-3274.70;61.10;;;;;;6247620;28;20234;-60
2022/03/04 02:22:56;;;;;;;20.90;12.77;;;-3274.80;60.90;;;;;;6246231;28;20256;-59
2022/03/04 02:25:58;;;;;;;19.90;10.70;;;-3274.70;61.20;;;;;;6219614;28;20179;-59
2022/03/04 02:28:59;;;;;;;15.60;10.43;;;-3274.70;61.20;;;;;;6215237;28;20199;-60
2022/03/04 02:32:00;;;;;;;16.73;9.93;;;-3274.70;61.30;;;;;;6220687;28;20197;-60
2022/03/04 02:35:03;;;;;;;16.57;10.13;;;-3274.60;61.60;;;;;;6251974;28;20245;-60
2022/03/04 02:38:04;;;;;;;17.30;10.83;;;-3274.60;61.60;;;;;;6268212;28;20199;-60
2022/03/04 02:41:06;;;;;;;15.37;10.57;;;-3274.60;61.70;;;;;;6269080;28;20190;-59
2022/03/04 02:44:10;;;;;;;15.73;9.90;;;-3274.60;61.80;;;;;;6220495;28;20202;-60
2022/03/04 02:47:11;;;;;;;16.73;10.83;;;-3274.60;62.00;;;;;;6252232;28;20195;-59
2022/03/04 02:50:12;;;;;;;15.70;10.27;;;-3274.50;61.80;;;;;;6268084;28;20196;-58
2022/03/04 02:53:14;;;;;;;15.53;9.97;;;-3274.60;61.90;;;;;;6235864;28;20214;-59
2022/03/04 02:56:15;;;;;;;15.87;10.10;;;-3274.50;62.10;;;;;;6216348;28;20221;-59
2022/03/04 02:59:15;;;;;;;19.13;11.83;;;-3274.50;62.10;;;;;;6223052;28;20198;-58
2022/03/04 03:02:16;;;;;;;19.37;11.17;;;-3274.50;62.30;;;;;;6251170;28;20200;-59
2022/03/04 03:05:17;;;;;;;15.50;10.37;;;-3274.50;62.30;;;;;;6218381;28;20204;-59
2022/03/04 03:08:18;;;;;;;17.93;10.13;;;-3274.50;62.00;;;;;;6210320;28;20232;-59
2022/03/04 03:11:19;;;;;;;17.00;10.40;;;-3274.50;61.80;;;;;;6226288;28;20199;-58
2022/03/04 03:14:20;;;;;;;16.80;10.20;;;-3274.50;61.80;;;;;;6249741;28;20220;-58
2022/03/04 03:17:21;;;;;;;17.07;10.30;;;-3274.50;61.70;;;;;;6267612;28;20276;-59
2022/03/04 03:20:22;;;;;;;18.07;11.30;;;-3274.50;61.90;;;;;;6221699;28;20287;-59
2022/03/04 03:23:23;;;;;;;15.47;9.77;;;-3274.50;61.80;;;;;;6214001;28;20214;-60
2022/03/04 03:26:24;;;;;;;21.00;10.73;;;-3274.40;61.90;;;;;;6230633;28;20198;-58
2022/03/04 03:29:25;;;;;;;16.93;10.60;;;-3274.40;61.90;;;;;;6251182;28;20184;-59
2022/03/04 03:32:26;;;;;;;15.47;10.63;;;-3274.40;62.40;;;;;;6251109;28;20194;-59
2022/03/04 03:35:27;;;;;;;14.73;9.00;;;-3274.30;62.80;;;;;;6249587;28;20226;-59
2022/03/04 03:38:28;;;;;;;16.13;9.90;;;-3274.10;63.40;;;;;;6209755;28;20195;-59
2022/03/04 03:41:29;;;;;;;15.10;9.30;;;-3274.00;63.80;;;;;;6227909;28;20181;-57
2022/03/04 03:44:30;;;;;;;17.03;9.00;;;-3274.00;63.60;;;;;;6231892;28;20282;-60
2022/03/04 03:47:31;;;;;;;16.27;9.30;;;-3274.00;63.70;;;;;;6217952;28;20287;-60
2022/03/04 03:50:32;;;;;;;19.80;12.47;;;-3273.90;64.30;;;;;;6226041;28;20249;-60
2022/03/04 03:53:33;;;;;;;19.90;12.93;;;-3273.80;64.40;;;;;;6222358;28;20239;-60
2022/03/04 03:56:34;;;;;;;19.87;11.83;;;-3273.80;64.30;;;;;;6241826;28;20242;-60
2022/03/04 03:59:35;;;;;;;21.37;13.13;;;-3273.90;64.50;;;;;;6261593;28;20191;-60
2022/03/04 04:02:36;;;;;;;22.87;12.47;;;-3273.80;64.50;;;;;;6266508;28;20220;-60
2022/03/04 04:05:37;;;;;;;19.90;11.10;;;-3273.90;64.70;;;;;;6262854;28;20200;-60
2022/03/04 04:08:38;;;;;;;21.33;11.67;;;-3273.90;64.70;;;;;;6223968;28;20266;-58
2022/03/04 04:11:39;;;;;;;21.80;12.10;;;-3273.90;64.70;;;;;;6274126;28;20202;-58
2022/03/04 04:14:40;;;;;;;18.10;11.50;;;-3273.80;64.70;;;;;;6267942;28;20318;-58
2022/03/04 04:17:41;;;;;;;19.67;11.17;;;-3273.80;64.60;;;;;;6266173;28;20197;-57
2022/03/04 04:20:42;;;;;;;15.57;9.80;;;-3273.80;64.90;;;;;;6232723;28;20238;-59
2022/03/04 04:23:43;;;;;;;14.77;8.77;;;-3273.80;64.40;;;;;;6232366;28;20225;-57
2022/03/04 04:26:44;;;;;;;15.63;10.20;;;-3273.80;64.20;;;;;;6215756;28;20192;-57
2022/03/04 04:29:45;;;;;;;17.70;10.13;;;-3273.80;64.20;;;;;;6222903;28;20215;-57
2022/03/04 04:32:46;;;;;;;18.07;10.63;;;-3273.80;64.30;;;;;;6249048;28;20196;-58
2022/03/04 04:35:47;;;;;;;18.03;10.30;;;-3273.70;64.60;;;;;;6249395;28;20206;-56
2022/03/04 04:38:47;;;;;;;19.80;11.43;;;-3273.70;65.00;;;;;;6233590;28;20195;-59
2022/03/04 04:41:48;;;;;;;19.00;10.97;;;-3273.70;65.30;;;;;;6249907;28;20194;-56
2022/03/04 04:44:49;;;;;;;17.30;10.87;;;-3273.80;65.20;;;;;;6262209;28;20203;-60
2022/03/04 04:47:50;;;;;;;17.30;10.33;;;-3273.80;65.20;;;;;;6248539;28;20229;-61
2022/03/04 04:50:51;;;;;;;18.03;10.30;;;-3273.80;65.30;;;;;;6248545;28;20224;-60
2022/03/04 04:53:53;;;;;;;16.20;9.87;;;-3273.70;65.40;;;;;;6264743;28;20211;-60
2022/03/04 04:56:54;;;;;;;15.90;10.53;;;-3273.70;65.40;;;;;;6209710;28;20267;-60
2022/03/04 04:59:55;;;;;;;17.43;9.50;;;-3273.70;65.30;;;;;;6240862;28;20289;-60
2022/03/04 05:02:56;;;;;;;19.40;10.33;;;-3273.70;65.10;;;;;;6228408;28;20194;-60
2022/03/04 05:05:57;;;;;;;18.30;9.70;;;-3273.60;65.00;;;;;;6211942;28;20256;-60
2022/03/04 05:08:57;;;;;;;18.13;9.90;;;-3273.60;65.30;;;;;;6250841;28;20254;-60
2022/03/04 05:11:58;;;;;;;15.53;9.90;;;-3273.50;65.60;;;;;;6243920;28;20281;-59
2022/03/04 05:14:59;;;;;;;17.63;10.07;;;-3273.50;65.40;;;;;;6248391;28;20222;-59
2022/03/04 05:18:00;;;;;;;15.80;10.20;;;-3273.50;65.50;;;;;;6243242;28;20200;-60
2022/03/04 05:21:03;;;;;;;21.23;10.00;;;-3273.50;65.40;;;;;;6229856;28;20237;-60
2022/03/04 05:24:06;;;;;;;15.00;9.87;;;-3273.50;65.50;;;;;;6248648;28;20193;-62
2022/03/04 05:27:08;;;;;;;16.37;9.43;;;-3273.50;65.80;;;;;;6256306;28;20216;-60
2022/03/04 05:30:09;;;;;;;17.83;9.80;;;-3273.40;65.80;;;;;;6225192;28;20195;-60
2022/03/04 05:33:10;;;;;;;13.83;9.73;;;-3273.40;65.90;;;;;;6231091;28;20203;-61
2022/03/04 05:36:11;;;;;;;20.33;10.03;;;-3273.40;66.00;;;;;;6253266;28;20221;-58
2022/03/04 05:39:12;;;;;;;16.37;10.07;;;-3273.50;65.90;;;;;;6251098;28;20240;-60
2022/03/04 05:42:13;;;;;;;18.20;10.17;;;-3273.50;65.90;;;;;;6241048;28;20187;-61
2022/03/04 05:45:14;;;;;;;18.83;10.77;;;-3273.40;65.80;;;;;;6204418;28;20192;-60
2022/03/04 05:48:14;;;;;;;17.23;10.43;;;-3273.50;65.60;;;;;;6250198;28;20196;-60
2022/03/04 05:51:17;;;;;;;21.47;11.23;;;-3273.50;65.60;;;;;;6266733;28;20215;-61
2022/03/04 05:54:18;;;;;;;16.37;11.60;;;-3273.50;65.40;;;;;;6255071;28;20225;-60
2022/03/04 05:57:18;;;;;;;17.43;10.40;;;-3273.50;65.10;;;;;;6245904;28;20191;-61
2022/03/04 06:00:19;;;;;;;19.37;10.83;;;-3273.50;65.40;;;;;;6228369;28;20187;-59
2022/03/04 06:03:20;;;;;;;17.40;9.93;;;-3273.60;65.70;;;;;;6195545;28;20195;-59
2022/03/04 06:06:21;;;;;;;18.47;10.50;;;-3273.60;65.70;;;;;;6217287;28;20203;-60
2022/03/04 06:09:27;;;;;;;18.03;10.00;;;-3273.70;65.30;;;;;;6211613;28;20286;-60
2022/03/04 06:12:28;;;;;;;19.13;10.47;;;-3273.80;64.40;;;;;;6232766;28;20200;-60
2022/03/04 06:15:29;;;;;;;15.53;9.00;;;-3273.90;64.30;;;;;;6253512;28;20314;-59
2022/03/04 06:18:30;;;;;;;16.80;9.17;;;-3274.00;64.20;;;;;;6232174;28;20304;-60
2022/03/04 06:21:31;;;;;;;16.30;10.37;;;-3274.00;64.00;;;;;;6244104;28;20245;-60
2022/03/04 06:24:32;;;;;;;16.60;9.33;;;-3274.10;63.20;;;;;;6246616;28;20202;-59
2022/03/04 06:27:33;;;;;;;17.80;10.20;;;-3274.20;62.80;;;;;;6237926;28;20191;-60
2022/03/04 06:30:38;;;;;;;16.40;10.17;;;-3274.30;63.20;;;;;;6236372;28;20226;-61
2022/03/04 06:33:40;;;;;;;15.80;9.63;;;-3274.30;63.30;;;;;;6238588;28;20196;-61
2022/03/04 06:36:41;;;;;;;14.23;8.93;;;-3274.40;63.00;;;;;;6242058;28;20189;-59
2022/03/04 06:39:42;;;;;;;18.30;9.60;;;-3274.50;62.60;;;;;;6233137;28;20296;-60
2022/03/04 06:42:46;;;;;;;14.07;9.40;;;-3274.60;62.20;;;;;;6261059;28;20234;-60
2022/03/04 06:45:48;;;;;;;15.10;9.03;;;-3274.60;62.80;;;;;;6236496;28;20204;-59
2022/03/04 06:48:49;;;;;;;20.90;12.43;;;-3274.70;63.30;;;;;;6232783;28;20195;-59
2022/03/04 06:51:50;;;;;;;19.43;11.43;;;-3274.70;62.80;;;;;;6237029;28;20342;-59
2022/03/04 06:54:51;;;;;;;20.93;11.60;;;-3274.70;61.70;;;;;;6243484;28;20232;-60
2022/03/04 06:57:54;;;;;;;30.90;13.37;;;-3274.70;61.90;;;;;;6226742;28;20200;-60
2022/03/04 07:00:55;;;;;;;29.60;16.63;;;-3274.90;61.30;;;;;;6242899;28;20192;-59
2022/03/04 07:03:55;;;;;;;30.20;19.37;;;-3274.90;61.20;;;;;;6233914;28;20198;-59
2022/03/04 07:06:56;;;;;;;31.47;17.50;;;-3274.90;61.10;;;;;;6226830;28;20200;-59
2022/03/04 07:09:57;;;;;;;21.57;13.10;;;-3275.00;60.60;;;;;;6212039;28;20262;-59
2022/03/04 07:12:58;;;;;;;17.37;10.53;;;-3275.00;60.20;;;;;;6248142;28;20195;-59
2022/03/04 07:16:00;;;;;;;15.17;9.67;;;-3275.10;59.90;;;;;;6238947;28;20230;-58
2022/03/04 07:19:01;;;;;;;17.50;9.87;;;-3275.20;60.40;;;;;;6232473;28;20199;-57
2022/03/04 07:22:03;;;;;;;12.87;8.40;;;-3275.30;60.60;;;;;;6248467;28;20196;-59
2022/03/04 07:25:05;;;;;;;15.90;9.07;;;-3275.50;60.10;;;;;;6245067;28;20244;-60
2022/03/04 07:28:08;;;;;;;14.53;8.87;;;-3275.90;58.60;;;;;;6228869;28;20327;-61
2022/03/04 07:31:08;;;;;;;15.33;9.27;;;-3276.00;58.60;;;;;;6234915;28;20194;-60
2022/03/04 07:34:10;;;;;;;15.10;9.13;;;-3276.40;56.20;;;;;;6240903;28;20344;-60
2022/03/04 07:37:11;;;;;;;17.47;10.40;;;-3276.70;54.50;;;;;;6236018;28;20199;-59
2022/03/04 07:40:14;;;;;;;20.27;12.07;;;0.00;55.30;;;;;;6241686;28;20193;-61
2022/03/04 07:43:15;;;;;;;22.57;13.27;;;0.20;54.50;;;;;;6260015;28;20197;-63
2022/03/04 07:46:17;;;;;;;17.10;9.87;;;0.40;54.10;;;;;;6238662;28;20194;-63
2022/03/04 07:49:18;;;;;;;21.30;11.30;;;0.70;53.70;;;;;;6245624;28;20194;-61
2022/03/04 07:52:19;;;;;;;21.93;12.10;;;0.90;52.30;;;;;;6248274;28;20194;-60
2022/03/04 07:55:20;;;;;;;18.27;9.60;;;1.10;51.50;;;;;;6245227;28;20237;-61
2022/03/04 07:58:21;;;;;;;13.70;8.53;;;1.40;51.10;;;;;;6229530;28;20210;-60
2022/03/04 08:01:22;;;;;;;14.73;8.80;;;1.80;49.60;;;;;;6248887;28;20196;-61
2022/03/04 08:04:22;;;;;;;12.57;7.87;;;2.20;47.00;;;;;;6227526;28;20221;-62
2022/03/04 08:07:23;;;;;;;12.73;7.57;;;2.60;42.60;;;;;;6248478;28;20215;-61
2022/03/04 08:10:24;;;;;;;13.70;8.00;;;2.90;41.50;;;;;;6248335;28;20228;-61
2022/03/04 08:13:25;;;;;;;10.63;6.57;;;3.00;40.70;;;;;;6225005;28;20195;-62
2022/03/04 08:16:29;;;;;;;13.30;7.70;;;3.20;40.40;;;;;;6232473;28;20269;-62
2022/03/04 08:19:30;;;;;;;11.37;7.73;;;3.30;39.10;;;;;;6261676;28;20326;-62
2022/03/04 08:22:31;;;;;;;13.37;7.17;;;3.40;39.40;;;;;;6227812;28;20191;-61
2022/03/04 08:25:32;;;;;;;10.30;7.27;;;3.50;39.40;;;;;;6259310;28;20225;-62
2022/03/04 08:28:33;;;;;;;13.30;7.90;;;3.30;39.60;;;;;;6237639;28;20202;-60
2022/03/04 08:31:34;;;;;;;11.47;7.43;;;3.30;39.70;;;;;;6223454;28;20198;-61
2022/03/04 08:34:35;;;;;;;12.77;7.83;;;3.30;41.00;;;;;;6212069;28;20264;-62
2022/03/04 08:37:37;;;;;;;10.60;7.43;;;3.30;41.40;;;;;;6244536;28;20190;-60
2022/03/04 08:40:38;;;;;;;11.03;7.23;;;3.40;40.00;;;;;;6239977;28;20211;-59
2022/03/04 08:43:39;;;;;;;10.40;6.73;;;3.40;40.10;;;;;;6224141;28;20202;-63
2022/03/04 08:46:41;;;;;;;8.53;7.03;;;3.60;41.20;;;;;;6236505;28;20195;-60
2022/03/04 08:49:41;;;;;;;11.67;7.73;;;3.70;39.20;;;;;;6208132;28;20257;-60
2022/03/04 08:52:42;;;;;;;11.43;7.27;;;3.80;38.80;;;;;;6229592;28;20198;-59
2022/03/04 08:55:45;;;;;;;8.90;6.37;;;3.80;38.90;;;;;;6222152;28;20258;-60
2022/03/04 08:58:46;;;;;;;11.53;7.23;;;4.00;38.70;;;;;;6224168;28;20192;-60
2022/03/04 09:01:47;;;;;;;9.17;6.93;;;4.10;37.70;;;;;;6215698;28;20237;-60
2022/03/04 09:04:48;;;;;;;8.83;6.13;;;4.10;38.40;;;;;;6247129;28;20207;-60
2022/03/04 09:07:49;;;;;;;10.07;5.83;;;4.20;38.30;;;;;;6227421;28;20202;-59
2022/03/04 09:10:49;;;;;;;10.33;6.27;;;4.30;37.80;;;;;;6223641;28;20199;-59
2022/03/04 09:13:50;;;;;;;10.77;6.10;;;4.30;37.70;;;;;;6222276;28;20217;-60
2022/03/04 09:16:53;;;;;;;10.70;6.00;;;4.30;39.10;;;;;;6239932;28;20191;-59
2022/03/04 09:19:53;;;;;;;6.37;5.23;;;4.30;37.80;;;;;;6241790;28;20287;-59
2022/03/04 09:22:56;;;;;;;11.43;5.93;;;4.40;37.70;;;;;;6246299;28;20188;-60
2022/03/04 09:25:57;;;;;;;9.20;6.03;;;4.50;36.60;;;;;;6214436;28;20199;-59
2022/03/04 09:28:58;;;;;;;7.60;4.87;;;4.60;36.10;;;;;;6251735;28;20287;-59
2022/03/04 09:31:59;;;;;;;8.13;4.87;;;4.60;36.00;;;;;;6225113;28;20198;-59
2022/03/04 09:35:00;;;;;;;6.37;4.50;;;4.70;35.90;;;;;;6227698;28;20215;-59
2022/03/04 09:38:01;;;;;;;8.13;5.00;;;4.70;36.10;;;;;;6232120;28;20197;-59
2022/03/04 09:41:03;;;;;;;5.93;4.70;;;4.80;34.80;;;;;;6253133;28;20185;-59
2022/03/04 09:44:04;;;;;;;5.90;4.50;;;4.90;35.60;;;;;;6261281;28;20225;-58
2022/03/04 09:47:05;;;;;;;5.80;4.27;;;5.00;34.90;;;;;;6236462;28;20192;-59
2022/03/04 09:50:07;;;;;;;6.40;4.40;;;5.10;34.60;;;;;;6224476;28;20241;-58
2022/03/04 09:53:09;;;;;;;6.77;4.53;;;5.20;34.20;;;;;;6212377;28;20222;-58
2022/03/04 09:56:10;;;;;;;5.53;4.33;;;5.10;34.30;;;;;;6237621;28;20229;-58
2022/03/04 09:59:11;;;;;;;6.57;4.30;;;5.20;34.90;;;;;;6194910;28;20191;-59
2022/03/04 10:02:13;;;;;;;8.40;4.83;;;5.30;35.30;;;;;;6230972;28;20202;-58
2022/03/04 10:05:14;;;;;;;6.40;4.30;;;5.30;34.80;;;;;;6246863;28;20243;-58
2022/03/04 10:08:19;;;;;;;9.50;6.27;;;5.40;34.90;;;;;;6233401;28;20194;-59
2022/03/04 10:11:38;;;;;;;6.67;4.43;;;5.60;34.70;;;;;;6260747;28;20712;-58
2022/03/04 10:15:03;;;;;;;8.90;4.80;;;5.70;34.00;;;;;;6251401;28;20225;-59
2022/03/04 10:18:05;;;;;;;7.17;4.77;;;5.70;34.10;;;;;;6240455;28;20187;-58
2022/03/04 10:21:06;;;;;;;5.83;4.20;;;5.80;33.40;;;;;;6262658;28;20301;-58
2022/03/04 10:24:08;;;;;;;6.00;4.47;;;5.90;33.50;;;;;;6236026;28;20189;-58
2022/03/04 10:27:18;;;;;;;5.87;4.43;;;5.90;32.70;;;;;;6207413;28;20222;-59
2022/03/04 10:30:31;;;;;;;6.10;4.43;;;6.00;32.50;;;;;;6245572;28;20186;-58
2022/03/04 10:33:32;;;;;;;5.53;4.13;;;6.00;32.90;;;;;;6226738;28;20184;-57
2022/03/04 10:36:32;;;;;;;7.53;4.07;;;6.10;32.60;;;;;;6238624;28;20249;-58
2022/03/04 10:39:33;;;;;;;6.30;3.97;;;6.20;33.10;;;;;;6224118;28;20202;-59
2022/03/04 10:42:38;;;;;;;7.33;4.37;;;6.30;32.80;;;;;;6239992;28;20201;-58
2022/03/04 10:45:41;;;;;;;5.47;4.10;;;6.30;32.50;;;;;;6243506;28;20195;-58
2022/03/04 10:48:51;;;;;;;6.33;3.93;;;6.50;32.60;;;;;;6252342;28;20190;-59
2022/03/04 10:52:05;;;;;;;6.20;4.30;;;6.70;32.90;;;;;;6245175;28;20195;-57
2022/03/04 10:55:07;;;;;;;6.50;3.90;;;6.80;31.90;;;;;;6248702;28;20322;-58
2022/03/04 10:58:17;;;;;;;5.07;3.50;;;6.80;31.40;;;;;;6246815;28;20186;-59
2022/03/04 11:01:19;;;;;;;7.00;4.27;;;6.90;31.00;;;;;;6251711;28;20207;-58
2022/03/04 11:04:20;;;;;;;5.10;3.87;;;7.20;31.20;;;;;;6245474;28;20259;-58
2022/03/04 11:07:20;;;;;;;5.70;4.10;;;7.10;30.10;;;;;;6225780;28;20186;-58
2022/03/04 11:10:22;;;;;;;6.30;4.27;;;7.20;31.60;;;;;;6226092;28;20202;-59
2022/03/04 11:13:24;;;;;;;7.00;4.90;;;7.30;30.70;;;;;;6242336;28;20214;-58
2022/03/04 11:16:26;;;;;;;6.20;3.70;;;7.30;30.70;;;;;;6258446;28;20230;-60
2022/03/04 11:19:27;;;;;;;6.17;4.50;;;7.30;30.50;;;;;;6225985;28;20228;-59
2022/03/04 11:22:28;;;;;;;5.80;4.20;;;7.30;31.50;;;;;;6224609;28;20191;-59
2022/03/04 11:25:44;;;;;;;5.67;3.80;;;7.70;31.60;;;;;;6239542;28;20277;-58
2022/03/04 11:28:52;;;;;;;6.93;3.70;;;7.90;30.60;;;;;;6230538;28;20310;-57
2022/03/04 11:31:53;;;;;;;8.43;4.70;;;8.10;30.30;;;;;;6245421;28;20215;-56
2022/03/04 11:34:54;;;;;;;5.93;4.20;;;8.30;30.60;;;;;;6226000;28;20248;-58
2022/03/04 11:37:55;;;;;;;5.67;4.07;;;8.50;30.40;;;;;;6224820;28;20205;-59
2022/03/04 11:40:56;;;;;;;6.97;4.73;;;8.70;30.00;;;;;;6224383;28;20191;-58
2022/03/04 11:43:58;;;;;;;6.50;3.97;;;8.80;30.20;;;;;;6233835;28;20186;-58
2022/03/04 11:47:10;;;;;;;7.87;5.23;;;8.70;29.70;;;;;;6242739;28;20197;-60
2022/03/04 11:50:24;;;;;;;4.80;4.27;;;8.50;28.30;;;;;;6239233;28;20215;-58
2022/03/04 11:53:25;;;;;;;9.40;4.77;;;8.30;29.10;;;;;;6243690;28;20263;-59
2022/03/04 11:56:26;;;;;;;6.57;4.23;;;8.50;30.20;;;;;;6223800;28;20265;-61
2022/03/04 11:59:27;;;;;;;6.23;4.57;;;8.30;29.00;;;;;;6233484;28;20190;-59
2022/03/04 12:02:47;;;;;;;7.47;5.30;;;8.30;30.10;;;;;;6233610;28;20182;-59
2022/03/04 12:05:50;;;;;;;9.23;6.00;;;8.60;31.60;;;;;;6256697;28;20203;-57
2022/03/04 12:08:51;;;;;;;11.77;6.13;;;8.50;32.30;;;;;;6242835;28;20199;-59
2022/03/04 12:12:18;;;;;;;8.33;6.60;;;8.60;32.60;;;;;;6229386;28;20194;-58
2022/03/04 12:15:19;;;;;;;9.73;6.33;;;8.80;32.30;;;;;;6247621;28;20211;-58
2022/03/04 12:18:25;;;;;;;9.87;7.10;;;8.90;32.40;;;;;;6239558;28;20186;-59
2022/03/04 12:21:26;;;;;;;15.30;9.40;;;9.20;32.50;;;;;;6227833;28;20237;-57
2022/03/04 12:24:32;;;;;;;11.13;8.23;;;9.10;32.40;;;;;;6244305;28;20218;-58
2022/03/04 12:27:34;;;;;;;14.97;9.57;;;9.20;32.70;;;;;;6264150;28;20217;-58
2022/03/04 12:30:36;;;;;;;12.87;9.60;;;9.30;34.00;;;;;;6242652;28;20199;-57
2022/03/04 12:33:39;;;;;;;13.73;10.03;;;9.10;33.70;;;;;;6244564;28;20194;-56
2022/03/04 12:36:40;;;;;;;14.20;10.20;;;9.20;33.50;;;;;;6227143;28;20250;-57
2022/03/04 12:39:43;;;;;;;17.50;11.00;;;9.30;33.90;;;;;;6241244;28;20195;-57
2022/03/04 12:42:52;;;;;;;16.23;11.87;;;9.80;33.10;;;;;;6240298;28;20193;-59
2022/03/04 12:45:53;;;;;;;18.87;11.47;;;10.10;32.30;;;;;;6234083;28;20187;-59
2022/03/04 12:48:54;;;;;;;15.90;11.03;;;10.50;31.90;;;;;;6239057;28;20197;-58
2022/03/04 12:51:56;;;;;;;14.27;10.27;;;10.30;32.20;;;;;;6224406;28;20191;-58
2022/03/04 12:55:04;;;;;;;14.70;10.57;;;10.70;32.20;;;;;;6247649;28;20222;-60
2022/03/04 12:58:05;;;;;;;14.87;10.90;;;11.00;30.90;;;;;;6215670;28;20285;-59
2022/03/04 13:01:07;;;;;;;14.67;11.17;;;10.80;31.80;;;;;;6248192;28;20190;-59
2022/03/04 13:04:09;;;;;;;16.53;11.40;;;11.10;31.30;;;;;;6240510;28;20192;-60
2022/03/04 13:07:09;;;;;;;18.03;12.47;;;12.10;30.30;;;;;;6212561;28;20223;-58
2022/03/04 13:10:12;;;;;;;16.57;12.03;;;12.70;29.90;;;;;;6244726;28;20186;-59
2022/03/04 13:13:13;;;;;;;16.13;12.63;;;12.70;28.50;;;;;;6257363;28;20311;-59
2022/03/04 13:16:23;;;;;;;19.10;13.17;;;12.30;29.50;;;;;;6247386;28;20214;-60
2022/03/04 13:19:26;;;;;;;18.93;13.50;;;12.20;30.60;;;;;;6227573;28;20226;-59
2022/03/04 13:22:27;;;;;;;18.27;13.73;;;12.20;30.00;;;;;;6236522;28;20241;-57
2022/03/04 13:25:29;;;;;;;20.23;14.47;;;12.00;29.80;;;;;;6263888;28;20185;-59
2022/03/04 13:28:56;;;;;;;19.07;15.20;;;12.30;29.10;;;;;;6239773;28;20290;-59
2022/03/04 13:32:09;;;;;;;26.73;17.70;;;12.40;29.60;;;;;;6247660;28;20278;-62
2022/03/04 13:35:11;;;;;;;26.20;18.40;;;12.20;30.50;;;;;;6239717;28;20219;-61
2022/03/04 13:38:21;;;;;;;23.83;18.60;;;12.40;30.50;;;;;;6245149;28;20339;-61
2022/03/04 13:41:22;;;;;;;26.20;18.40;;;12.60;30.30;;;;;;6230129;28;20250;-61
2022/03/04 13:44:23;;;;;;;27.37;17.63;;;12.40;30.20;;;;;;6220267;28;20195;-61
2022/03/04 13:47:35;;;;;;;24.63;18.63;;;12.80;30.10;;;;;;6207369;28;20195;-61
2022/03/04 13:50:38;;;;;;;25.53;18.43;;;12.90;30.20;;;;;;6236497;28;20196;-62
2022/03/04 13:53:56;;;;;;;27.43;19.30;;;12.50;30.20;;;;;;6225761;28;20242;-62
2022/03/04 13:56:56;;;;;;;28.10;19.03;;;11.80;31.60;;;;;;6235203;28;20183;-61
2022/03/04 14:00:05;;;;;;;28.43;18.97;;;11.50;32.40;;;;;;6223351;28;20222;-61
2022/03/04 14:03:14;;;;;;;27.73;20.13;;;11.30;32.70;;;;;;6239890;28;20282;-61
2022/03/04 14:06:17;;;;;;;28.23;19.17;;;11.80;33.10;;;;;;6260102;28;20184;-61
2022/03/04 14:09:18;;;;;;;26.13;18.10;;;11.80;32.70;;;;;;6258352;28;20245;-62
2022/03/04 14:12:19;;;;;;;27.70;20.53;;;11.70;33.10;;;;;;6237532;28;20286;-61
2022/03/04 14:15:20;;;;;;;26.90;19.47;;;12.20;32.40;;;;;;6211418;28;20226;-61
2022/03/04 14:18:24;;;;;;;28.33;19.53;;;12.00;33.10;;;;;;6240429;28;20191;-61
2022/03/04 14:21:25;;;;;;;30.87;20.30;;;11.40;34.30;;;;;;6252059;28;20262;-61
2022/03/04 14:24:25;;;;;;;28.10;19.57;;;11.00;34.70;;;;;;6243938;28;20198;-61
2022/03/04 14:27:26;;;;;;;35.57;24.53;;;10.80;35.40;;;;;;6219792;28;20285;-61
2022/03/04 14:30:33;;;;;;;26.33;19.73;;;10.80;35.40;;;;;;6212118;28;20226;-61
2022/03/04 14:33:34;;;;;;;30.83;21.40;;;10.60;35.80;;;;;;6234078;28;20194;-61
2022/03/04 14:36:35;;;;;;;27.83;19.07;;;11.00;35.00;;;;;;6269008;28;20222;-61
2022/03/04 14:39:36;;;;;;;25.20;17.93;;;11.30;34.10;;;;;;6243480;28;20282;-60
2022/03/04 14:42:40;;;;;;;32.43;21.20;;;11.30;34.10;;;;;;6241397;28;20198;-60
2022/03/04 14:45:41;;;;;;;25.53;18.03;;;10.70;34.90;;;;;;6227898;28;20272;-60
2022/03/04 14:48:45;;;;;;;24.97;19.17;;;10.30;35.40;;;;;;6270655;28;20207;-61
2022/03/04 14:51:47;;;;;;;28.90;19.10;;;9.80;36.80;;;;;;6230708;28;20265;-60
2022/03/04 14:54:48;;;;;;;30.27;21.13;;;9.40;37.50;;;;;;6257429;28;20211;-60
2022/03/04 14:57:49;;;;;;;26.33;18.40;;;9.40;37.70;;;;;;6251537;28;20206;-60
2022/03/04 15:00:50;;;;;;;24.93;17.50;;;9.00;38.30;;;;;;6242942;28;20195;-60
2022/03/04 15:03:51;;;;;;;26.57;18.73;;;8.90;38.90;;;;;;6258193;28;20250;-61
2022/03/04 15:06:52;;;;;;;26.17;18.37;;;8.70;38.90;;;;;;6254638;28;20205;-60
2022/03/04 15:09:53;;;;;;;24.73;17.77;;;8.80;38.90;;;;;;6237324;28;20199;-60
2022/03/04 15:12:55;;;;;;;24.20;16.70;;;8.60;38.90;;;;;;6263132;28;20205;-59
2022/03/04 15:15:55;;;;;;;25.87;17.67;;;8.80;38.20;;;;;;6266330;28;20244;-60
2022/03/04 15:18:56;;;;;;;25.37;17.37;;;8.90;37.80;;;;;;6249902;28;20198;-60